TimeEDT,TemperatureF,Dew PointF,Humidity,Sea Level PressureIn,VisibilityMPH,Wind Direction,Wind SpeedMPH,Gust SpeedMPH,PrecipitationIn,Events,Conditions,WindDirDegrees,DateUTC
12:53 AM,46.9,28.0,48,30.13,10.0,SE,5.8,-,N/A,,Overcast,140,2013-03-10 05:53:00
1:53 AM,48.0,27.0,44,30.11,10.0,Calm,Calm,-,N/A,,Overcast,0,2013-03-10 06:53:00
3:53 AM,48.0,27.0,44,30.11,10.0,Calm,Calm,-,N/A,,Scattered Clouds,0,2013-03-10 07:53:00
4:53 AM,48.0,27.0,44,30.08,10.0,Calm,Calm,-,N/A,,Overcast,0,2013-03-10 08:53:00
5:53 AM,46.9,28.0,48,30.09,10.0,SE,4.6,-,N/A,,Scattered Clouds,140,2013-03-10 09:53:00
6:53 AM,48.9,27.0,43,30.11,10.0,Calm,Calm,-,N/A,,Mostly Cloudy,0,2013-03-10 10:53:00
8:53 AM,44.1,37.0,76,30.14,10.0,SE,3.5,-,0.01,,Overcast,130,2013-03-10 12:53:00
9:53 AM,46.9,35.1,63,30.14,10.0,SE,6.9,-,0.01,,Scattered Clouds,130,2013-03-10 13:53:00
10:53 AM,52.0,34.0,50,30.14,10.0,SE,5.8,-,N/A,,Scattered Clouds,140,2013-03-10 14:53:00
11:53 AM,59.0,33.1,38,30.11,10.0,South,6.9,-,N/A,,Partly Cloudy,180,2013-03-10 15:53:00
12:53 PM,64.0,32.0,30,30.08,10.0,SSE,4.6,-,N/A,,Partly Cloudy,150,2013-03-10 16:53:00
1:53 PM,64.9,30.9,28,30.05,10.0,SSW,5.8,-,N/A,,Clear,210,2013-03-10 17:53:00
2:53 PM,69.1,33.1,26,30.01,10.0,South,8.1,-,N/A,,Clear,170,2013-03-10 18:53:00
3:53 PM,69.1,32.0,25,29.99,10.0,South,12.7,17.3,N/A,,Clear,170,2013-03-10 19:53:00
4:53 PM,71.1,30.9,23,29.99,10.0,SW,6.9,-,N/A,,Clear,220,2013-03-10 20:53:00
5:53 PM,71.1,30.0,22,29.97,10.0,SE,4.6,-,N/A,,Clear,140,2013-03-10 21:53:00
6:53 PM,69.1,30.9,24,29.97,10.0,South,6.9,-,N/A,,Clear,180,2013-03-10 22:53:00
7:53 PM,62.1,34.0,35,29.97,10.0,SE,4.6,-,N/A,,Clear,130,2013-03-10 23:53:00
8:53 PM,60.1,34.0,38,29.96,10.0,SE,5.8,-,N/A,,Clear,130,2013-03-11 00:53:00
9:53 PM,55.0,36.0,49,29.95,10.0,SSE,4.6,-,N/A,,Clear,150,2013-03-11 01:53:00
10:53 PM,57.9,34.0,41,29.94,10.0,SSE,6.9,-,N/A,,Clear,160,2013-03-11 02:53:00
11:53 PM,61.0,32.0,34,29.92,10.0,SSE,9.2,-,N/A,,Clear,150,2013-03-11 03:53:00
12:53 AM,62.1,32.0,32,29.92,10.0,SSE,9.2,-,N/A,,Clear,150,2013-03-11 04:53:00